createdAt,value
2023-05-05T00:00:07.886Z,100522.50
2023-05-05T00:02:59.231Z,100521.19
2023-05-05T00:05:30.878Z,100516.84
2023-05-05T00:07:59.622Z,100519.86
2023-05-05T00:10:28.332Z,100521.13
2023-05-05T00:13:00.642Z,100519.52
2023-05-05T00:15:30.319Z,100516.50
2023-05-05T00:18:00.344Z,100520.75
2023-05-05T00:20:28.891Z,100519.79
2023-05-05T00:22:58.388Z,100521.64
2023-05-05T00:25:27.096Z,100517.55
2023-05-05T00:27:58.271Z,100519.50
2023-05-05T00:30:39.835Z,100516.81
2023-05-05T00:33:10.188Z,100510.94
2023-05-05T00:35:42.532Z,100511.00
2023-05-05T00:38:13.637Z,100511.04
2023-05-05T00:40:48.621Z,100512.81
2023-05-05T00:43:17.213Z,100509.73
2023-05-05T00:45:57.488Z,100511.37
2023-05-05T00:48:32.913Z,100507.34
2023-05-05T00:51:01.577Z,100506.45
2023-05-05T00:53:32.913Z,100512.83
2023-05-05T00:56:07.215Z,100514.84
2023-05-05T00:58:38.386Z,100514.38
2023-05-05T01:01:20.888Z,100514.32
2023-05-05T01:07:01.101Z,100518.87
2023-05-05T01:10:15.639Z,100513.42
2023-05-05T01:13:17.693Z,100513.43
2023-05-05T01:16:00.950Z,100515.67
2023-05-05T01:19:08.137Z,100514.88
2023-05-05T01:21:43.638Z,100512.17
2023-05-05T01:24:51.655Z,100509.94
2023-05-05T01:27:34.432Z,100505.95
2023-05-05T01:30:09.271Z,100499.65
2023-05-05T01:32:51.264Z,100502.88
2023-05-05T01:35:27.457Z,100504.26
2023-05-05T01:38:06.153Z,100503.48
2023-05-05T01:40:43.766Z,100503.85
2023-05-05T01:43:20.112Z,100507.16
2023-05-05T01:45:53.796Z,100508.20
2023-05-05T01:48:24.859Z,100501.79
2023-05-05T01:50:55.853Z,100499.02
2023-05-05T01:53:30.002Z,100498.58
2023-05-05T01:56:08.277Z,100504.89
2023-05-05T01:58:43.327Z,100507.06
2023-05-05T02:01:15.900Z,100502.72
2023-05-05T02:03:48.826Z,100505.13
2023-05-05T02:06:21.445Z,100506.43
2023-05-05T02:08:51.627Z,100508.75
2023-05-05T02:11:22.043Z,100512.27
2023-05-05T02:13:52.194Z,100514.46
2023-05-05T02:16:22.995Z,100510.52
2023-05-05T02:18:54.309Z,100504.27
2023-05-05T02:21:32.338Z,100498.64
2023-05-05T02:24:12.578Z,100495.66
2023-05-05T02:26:46.111Z,100493.69
2023-05-05T02:29:31.873Z,100488.95
2023-05-05T02:32:37.361Z,100482.67
2023-05-05T02:35:34.397Z,100481.48
2023-05-05T02:38:10.166Z,100480.62
2023-05-05T02:40:47.516Z,100481.67
2023-05-05T02:43:21.695Z,100484.32
2023-05-05T02:45:50.783Z,100482.69
2023-05-05T02:48:44.959Z,100481.05
2023-05-05T02:51:18.469Z,100481.51
2023-05-05T02:53:55.123Z,100483.09
2023-05-05T02:56:39.401Z,100479.91
2023-05-05T02:59:20.033Z,100484.12
2023-05-05T03:02:15.959Z,100481.94
2023-05-05T03:05:00.757Z,100490.34
2023-05-05T03:07:51.960Z,100496.28
2023-05-05T03:10:57.414Z,100495.66
2023-05-05T03:13:30.786Z,100494.25
2023-05-05T03:16:06.881Z,100496.95
2023-05-05T03:18:40.104Z,100498.17
2023-05-05T03:21:09.751Z,100499.02
2023-05-05T03:23:41.008Z,100502.35
2023-05-05T03:26:25.038Z,100503.20
2023-05-05T03:28:56.299Z,100507.34
2023-05-05T03:31:43.917Z,100506.06
2023-05-05T03:34:17.149Z,100507.02
2023-05-05T03:36:53.053Z,100507.41
2023-05-05T03:39:21.846Z,100506.58
2023-05-05T03:41:50.523Z,100504.70
2023-05-05T03:44:25.083Z,100504.45
2023-05-05T03:46:57.347Z,100504.12
2023-05-05T03:49:32.294Z,100507.44
2023-05-05T03:52:15.042Z,100511.60
2023-05-05T03:54:46.249Z,100512.95
2023-05-05T03:57:14.371Z,100508.73
2023-05-05T03:59:42.566Z,100510.66
2023-05-05T04:02:10.967Z,100507.77
2023-05-05T04:04:38.971Z,100507.54
2023-05-05T04:07:07.090Z,100507.02
2023-05-05T04:09:35.456Z,100509.38
2023-05-05T04:12:04.891Z,100513.16
2023-05-05T04:14:33.971Z,100510.62
2023-05-05T04:17:02.124Z,100514.09
2023-05-05T04:19:34.629Z,100512.87
2023-05-05T04:22:03.795Z,100511.72
2023-05-05T04:24:32.216Z,100513.66
2023-05-05T04:27:01.260Z,100518.30
2023-05-05T04:29:30.119Z,100519.68
2023-05-05T04:31:58.166Z,100523.19
2023-05-05T04:34:26.321Z,100526.45
2023-05-05T04:36:54.552Z,100528.97
2023-05-05T04:39:22.698Z,100528.55
2023-05-05T04:41:51.468Z,100532.42
2023-05-05T04:44:20.367Z,100535.52
2023-05-05T04:46:48.526Z,100534.80
2023-05-05T04:49:17.475Z,100532.02
2023-05-05T04:51:46.606Z,100533.23
2023-05-05T04:54:15.071Z,100535.47
2023-05-05T04:56:57.999Z,100536.36
2023-05-05T04:59:26.423Z,100538.25
2023-05-05T05:01:54.717Z,100542.15
2023-05-05T05:04:23.034Z,100541.15
2023-05-05T05:06:52.761Z,100539.62
2023-05-05T05:09:20.801Z,100547.32
2023-05-05T05:11:48.922Z,100549.60
2023-05-05T05:14:19.794Z,100545.48
2023-05-05T05:16:54.907Z,100551.66
2023-05-05T05:19:24.400Z,100553.17
2023-05-05T05:21:54.587Z,100559.10
2023-05-05T05:24:23.166Z,100560.45
2023-05-05T05:26:52.111Z,100558.63
2023-05-05T05:29:20.562Z,100557.02
2023-05-05T05:31:50.264Z,100561.89
2023-05-05T05:34:18.577Z,100563.48
2023-05-05T05:36:46.810Z,100563.89
2023-05-05T05:39:14.973Z,100566.40
2023-05-05T05:41:43.054Z,100567.11
2023-05-05T05:44:11.260Z,100569.17
2023-05-05T05:46:39.408Z,100569.98
2023-05-05T05:49:07.685Z,100575.89
2023-05-05T05:51:35.856Z,100576.69
2023-05-05T05:54:04.133Z,100578.13
2023-05-05T05:56:32.426Z,100580.04
2023-05-05T05:59:01.678Z,100575.33
2023-05-05T06:01:29.842Z,100578.27
2023-05-05T06:03:58.295Z,100579.08
2023-05-05T06:06:28.037Z,100583.77
2023-05-05T06:08:56.015Z,100580.11
2023-05-05T06:11:24.295Z,100584.02
2023-05-05T06:13:52.277Z,100584.64
2023-05-05T06:16:20.494Z,100580.30
2023-05-05T06:18:49.055Z,100577.55
2023-05-05T06:21:20.655Z,100580.78
2023-05-05T06:23:48.670Z,100578.97
2023-05-05T06:26:18.451Z,100577.84
2023-05-05T06:28:46.625Z,100577.36
2023-05-05T06:31:14.927Z,100578.45
2023-05-05T06:33:43.168Z,100578.20
2023-05-05T06:36:11.257Z,100576.61
2023-05-05T06:38:39.420Z,100575.65
2023-05-05T06:41:07.484Z,100577.33
2023-05-05T06:43:35.657Z,100576.20
2023-05-05T06:46:07.780Z,100573.95
2023-05-05T06:48:35.955Z,100569.52
2023-05-05T06:51:03.918Z,100569.02
2023-05-05T06:53:31.983Z,100569.07
2023-05-05T06:56:00.040Z,100573.63
2023-05-05T06:58:28.252Z,100573.84
2023-05-05T07:00:56.329Z,100576.35
2023-05-05T07:03:24.265Z,100577.98
2023-05-05T07:05:53.904Z,100579.16
2023-05-05T07:08:21.986Z,100580.67
2023-05-05T07:10:49.952Z,100575.28
2023-05-05T07:13:17.943Z,100576.70
2023-05-05T07:15:48.810Z,100579.42
2023-05-05T07:18:17.258Z,100582.05
2023-05-05T07:20:45.226Z,100578.26
2023-05-05T07:23:13.165Z,100578.36
2023-05-05T07:25:41.110Z,100574.34
2023-05-05T07:28:09.210Z,100578.73
2023-05-05T07:30:37.149Z,100577.91
2023-05-05T07:33:05.206Z,100581.16
2023-05-05T07:35:33.263Z,100578.70
2023-05-05T07:38:01.234Z,100579.17
2023-05-05T07:40:29.268Z,100577.13
2023-05-05T07:42:57.166Z,100576.59
2023-05-05T07:45:25.184Z,100573.22
2023-05-05T07:48:00.718Z,100574.21
2023-05-05T07:50:57.501Z,100579.56
2023-05-05T07:53:25.817Z,100573.56
2023-05-05T07:55:58.641Z,100571.05
2023-05-05T07:58:26.958Z,100572.06
2023-05-05T08:01:01.736Z,100573.46
2023-05-05T08:03:35.440Z,100568.46
2023-05-05T08:06:12.091Z,100567.20
2023-05-05T08:08:57.633Z,100564.66
2023-05-05T08:11:31.088Z,100567.44
2023-05-05T08:13:59.284Z,100566.88
2023-05-05T08:16:27.986Z,100568.60
2023-05-05T08:18:57.670Z,100571.48
2023-05-05T08:21:26.010Z,100570.63
2023-05-05T08:23:54.497Z,100566.59
2023-05-05T08:26:37.617Z,100563.83
2023-05-05T08:29:06.051Z,100565.27
2023-05-05T08:31:39.697Z,100566.64
2023-05-05T08:34:07.901Z,100567.73
2023-05-05T08:36:36.328Z,100564.97
2023-05-05T08:39:04.672Z,100562.30
2023-05-05T08:41:35.645Z,100567.86
2023-05-05T08:44:03.685Z,100565.96
2023-05-05T08:46:32.509Z,100560.70
2023-05-05T08:49:03.750Z,100559.43
2023-05-05T08:51:37.759Z,100560.54
2023-05-05T08:54:12.461Z,100560.06
2023-05-05T08:56:43.702Z,100555.90
2023-05-05T08:59:13.478Z,100557.13
2023-05-05T09:01:44.393Z,100552.83
2023-05-05T09:04:15.122Z,100554.41
2023-05-05T09:06:43.169Z,100552.04
2023-05-05T09:09:12.006Z,100548.39
2023-05-05T09:11:41.621Z,100546.84
2023-05-05T09:14:09.596Z,100549.61
2023-05-05T09:16:43.646Z,100552.36
2023-05-05T09:19:11.752Z,100549.61
2023-05-05T09:21:48.727Z,100548.40
2023-05-05T09:24:16.840Z,100546.11
2023-05-05T09:26:46.744Z,100546.67
2023-05-05T09:29:19.649Z,100542.02
2023-05-05T09:32:08.465Z,100543.04
2023-05-05T09:34:37.737Z,100541.82
2023-05-05T09:37:06.343Z,100536.96
2023-05-05T09:39:34.703Z,100537.30
2023-05-05T09:42:03.154Z,100531.69
2023-05-05T09:44:36.368Z,100531.70
2023-05-05T09:47:15.086Z,100531.39
2023-05-05T09:50:01.279Z,100528.20
2023-05-05T09:52:30.580Z,100526.66
2023-05-05T09:54:58.608Z,100518.41
2023-05-05T09:57:29.370Z,100520.31
2023-05-05T09:59:59.677Z,100516.52
2023-05-05T10:02:33.171Z,100517.66
2023-05-05T10:05:16.038Z,100515.41
2023-05-05T10:07:46.566Z,100514.69
2023-05-05T10:10:18.509Z,100516.00
2023-05-05T10:12:48.080Z,100515.45
2023-05-05T10:15:16.240Z,100511.05
2023-05-05T10:18:06.034Z,100512.13
2023-05-05T10:20:38.713Z,100507.92
2023-05-05T10:23:11.044Z,100500.49
2023-05-05T10:25:52.913Z,100500.98
2023-05-05T10:28:30.656Z,100499.80
2023-05-05T10:31:02.181Z,100498.27
2023-05-05T10:33:55.843Z,100497.02
2023-05-05T10:36:25.026Z,100492.82
2023-05-05T10:38:57.856Z,100490.77
2023-05-05T10:41:27.064Z,100483.88
2023-05-05T10:43:57.770Z,100477.81
2023-05-05T10:46:28.354Z,100474.73
2023-05-05T10:49:22.899Z,100474.25
2023-05-05T10:52:34.671Z,100477.98
2023-05-05T10:55:27.676Z,100478.23
2023-05-05T10:57:56.060Z,100471.30
2023-05-05T11:00:39.658Z,100472.20
2023-05-05T11:03:16.944Z,100471.09
2023-05-05T11:06:03.429Z,100469.27
2023-05-05T11:08:33.353Z,100470.05
2023-05-05T11:11:01.952Z,100462.73
2023-05-05T11:13:30.357Z,100457.85
2023-05-05T11:16:00.228Z,100454.27
2023-05-05T11:18:36.035Z,100450.17
2023-05-05T11:21:15.430Z,100451.02
2023-05-05T11:23:49.252Z,100451.41
2023-05-05T11:26:38.470Z,100448.90
2023-05-05T11:29:06.794Z,100448.39
2023-05-05T11:31:35.101Z,100446.90
2023-05-05T11:34:48.441Z,100446.42
2023-05-05T11:37:17.269Z,100438.80
2023-05-05T11:40:10.336Z,100436.08
2023-05-05T11:42:38.602Z,100434.42
2023-05-05T11:45:23.791Z,100431.58
2023-05-05T11:47:51.812Z,100428.30
2023-05-05T11:50:21.446Z,100424.61
2023-05-05T11:52:49.576Z,100426.45
2023-05-05T11:55:21.057Z,100415.97
2023-05-05T11:57:49.136Z,100415.46
2023-05-05T12:00:17.658Z,100418.80
2023-05-05T12:02:46.117Z,100413.30
2023-05-05T12:05:21.356Z,100410.32
2023-05-05T12:07:57.447Z,100405.30
2023-05-05T12:10:25.657Z,100403.32
2023-05-05T12:12:55.500Z,100402.84
2023-05-05T12:15:32.205Z,100396.74
2023-05-05T12:18:02.353Z,100393.73
2023-05-05T12:20:36.797Z,100394.98
2023-05-05T12:23:04.853Z,100387.55
2023-05-05T12:25:37.007Z,100382.44
2023-05-05T12:28:09.419Z,100389.39
2023-05-05T12:30:37.676Z,100390.39
2023-05-05T12:33:07.296Z,100383.73
2023-05-05T12:35:35.887Z,100378.30
2023-05-05T12:38:04.138Z,100378.25
2023-05-05T12:40:49.270Z,100379.02
2023-05-05T12:43:31.286Z,100376.89
2023-05-05T12:46:10.208Z,100375.64
2023-05-05T12:48:40.617Z,100374.50
2023-05-05T12:51:16.242Z,100370.27
2023-05-05T12:53:48.931Z,100370.05
2023-05-05T12:56:30.624Z,100369.11
2023-05-05T12:58:58.758Z,100363.86
2023-05-05T13:01:27.689Z,100361.40
2023-05-05T13:04:12.901Z,100357.02
2023-05-05T13:06:43.315Z,100353.40
2023-05-05T13:09:30.310Z,100351.09
2023-05-05T13:11:58.624Z,100350.89
2023-05-05T13:14:26.608Z,100344.41
2023-05-05T13:16:54.682Z,100341.30
2023-05-05T13:19:25.217Z,100333.77
2023-05-05T13:21:57.791Z,100338.42
2023-05-05T13:24:42.121Z,100333.30
2023-05-05T13:27:14.238Z,100333.73
2023-05-05T13:29:42.564Z,100329.20
2023-05-05T13:32:10.438Z,100318.45
2023-05-05T13:34:39.315Z,100315.39
2023-05-05T13:37:07.499Z,100315.83
2023-05-05T13:39:35.503Z,100313.80
2023-05-05T13:42:03.610Z,100309.50
2023-05-05T13:44:31.625Z,100305.91
2023-05-05T13:46:59.608Z,100301.46
2023-05-05T13:49:27.991Z,100303.06
2023-05-05T13:51:56.474Z,100297.34
2023-05-05T13:54:24.393Z,100299.36
2023-05-05T13:56:52.451Z,100303.05
2023-05-05T13:59:20.434Z,100294.02
2023-05-05T14:01:48.976Z,100291.46
2023-05-05T14:04:17.081Z,100291.38
2023-05-05T14:06:45.247Z,100293.58
2023-05-05T14:09:13.198Z,100293.70
2023-05-05T14:11:41.182Z,100288.39
2023-05-05T14:14:09.170Z,100290.75
2023-05-05T14:16:37.341Z,100289.37
2023-05-05T14:19:05.825Z,100283.60
2023-05-05T14:21:33.861Z,100277.80
2023-05-05T14:24:01.832Z,100277.39
2023-05-05T14:26:29.772Z,100272.42
2023-05-05T14:28:57.691Z,100268.81
2023-05-05T14:31:25.899Z,100268.29
2023-05-05T14:33:54.035Z,100270.31
2023-05-05T14:36:21.959Z,100269.61
2023-05-05T14:38:49.904Z,100271.59
2023-05-05T14:41:17.870Z,100266.24
2023-05-05T14:43:45.819Z,100262.77
2023-05-05T14:46:13.770Z,100260.31
2023-05-05T14:48:41.713Z,100258.39
2023-05-05T14:51:09.771Z,100257.94
2023-05-05T14:53:37.816Z,100252.85
2023-05-05T14:56:06.133Z,100260.33
2023-05-05T14:58:34.187Z,100253.66
2023-05-05T15:01:02.106Z,100250.91
2023-05-05T15:03:30.336Z,100249.63
2023-05-05T15:05:58.571Z,100252.03
2023-05-05T15:08:26.722Z,100249.15
2023-05-05T15:10:54.675Z,100247.89
2023-05-05T15:13:22.649Z,100245.80
2023-05-05T15:15:51.470Z,100246.59
2023-05-05T15:18:19.495Z,100247.00
2023-05-05T15:20:47.756Z,100249.42
2023-05-05T15:23:16.195Z,100248.18
2023-05-05T15:25:44.116Z,100246.48
2023-05-05T15:28:12.120Z,100244.16
2023-05-05T15:30:40.052Z,100248.84
2023-05-05T15:33:07.970Z,100246.64
2023-05-05T15:35:36.371Z,100243.55
2023-05-05T15:38:04.358Z,100246.27
2023-05-05T15:40:32.451Z,100242.72
2023-05-05T15:43:00.282Z,100242.54
2023-05-05T15:45:28.317Z,100237.92
2023-05-05T15:47:56.187Z,100239.09
2023-05-05T15:50:24.119Z,100243.58
2023-05-05T15:52:52.160Z,100239.56
2023-05-05T15:55:20.571Z,100235.98
2023-05-05T15:57:48.725Z,100241.39
2023-05-05T16:00:16.887Z,100236.83
2023-05-05T16:02:45.326Z,100231.88
2023-05-05T16:05:13.590Z,100233.33
2023-05-05T16:07:41.589Z,100240.30
2023-05-05T16:10:10.760Z,100238.17
2023-05-05T16:12:38.848Z,100234.44
2023-05-05T16:15:10.513Z,100232.22
2023-05-05T16:17:41.577Z,100235.67
2023-05-05T16:20:10.598Z,100234.89
2023-05-05T16:22:38.684Z,100234.30
2023-05-05T16:25:07.856Z,100230.72
2023-05-05T16:27:36.054Z,100228.62
2023-05-05T16:30:04.459Z,100230.42
2023-05-05T16:32:34.177Z,100230.70
2023-05-05T16:35:02.108Z,100229.41
2023-05-05T16:37:30.048Z,100228.77
2023-05-05T16:39:57.893Z,100227.59
2023-05-05T16:42:27.397Z,100223.70
2023-05-05T16:44:55.336Z,100225.10
2023-05-05T16:47:23.399Z,100230.59
2023-05-05T16:49:52.595Z,100228.05
2023-05-05T16:52:20.490Z,100230.37
2023-05-05T16:54:55.435Z,100232.06
2023-05-05T16:57:23.795Z,100232.50
2023-05-05T16:59:55.718Z,100231.73
2023-05-05T17:02:23.616Z,100232.77
2023-05-05T17:04:54.415Z,100234.70
2023-05-05T17:07:22.390Z,100239.40
2023-05-05T17:09:50.216Z,100235.94
2023-05-05T17:12:18.069Z,100239.73
2023-05-05T17:14:46.077Z,100239.42
2023-05-05T17:17:14.181Z,100244.46
2023-05-05T17:19:42.793Z,100244.73
2023-05-05T17:22:10.747Z,100244.66
2023-05-05T17:24:38.754Z,100246.13
2023-05-05T17:27:06.674Z,100247.15
2023-05-05T17:29:40.499Z,100243.70
2023-05-05T17:32:09.040Z,100242.13
2023-05-05T17:34:41.845Z,100241.98
2023-05-05T17:37:09.781Z,100246.39
2023-05-05T17:39:39.812Z,100248.33
2023-05-05T17:42:07.735Z,100247.08
2023-05-05T17:44:35.721Z,100247.61
2023-05-05T17:47:07.796Z,100249.36
2023-05-05T17:49:36.334Z,100251.55
2023-05-05T17:52:04.789Z,100248.55
2023-05-05T17:54:34.821Z,100251.95
2023-05-05T17:57:03.778Z,100250.83
2023-05-05T17:59:32.104Z,100250.08
2023-05-05T18:02:09.125Z,100254.30
2023-05-05T18:04:37.678Z,100259.48
2023-05-05T18:07:05.637Z,100262.39
2023-05-05T18:09:33.925Z,100261.84
2023-05-05T18:12:03.684Z,100265.61
2023-05-05T18:14:31.558Z,100268.63
2023-05-05T18:17:01.419Z,100270.63
2023-05-05T18:19:29.423Z,100272.77
2023-05-05T18:21:57.555Z,100272.73
2023-05-05T18:24:25.883Z,100275.81
2023-05-05T18:26:53.793Z,100275.79
2023-05-05T18:29:22.054Z,100276.14
2023-05-05T18:31:53.228Z,100277.95
2023-05-05T18:34:21.354Z,100278.30
2023-05-05T18:36:51.519Z,100277.37
2023-05-05T18:39:20.248Z,100275.21
2023-05-05T18:41:48.187Z,100273.73
2023-05-05T18:44:18.026Z,100275.91
2023-05-05T18:46:47.484Z,100279.70
2023-05-05T18:49:16.322Z,100282.75
2023-05-05T18:51:44.482Z,100281.89
2023-05-05T18:54:12.747Z,100285.41
2023-05-05T18:56:40.663Z,100285.02
2023-05-05T18:59:09.155Z,100286.05
2023-05-05T19:01:37.154Z,100286.51
2023-05-05T19:04:08.479Z,100287.55
2023-05-05T19:06:41.049Z,100287.67
2023-05-05T19:09:10.674Z,100289.77
2023-05-05T19:11:50.210Z,100295.56
2023-05-05T19:14:22.878Z,100295.77
2023-05-05T19:16:51.284Z,100293.45
2023-05-05T19:19:19.252Z,100291.43
2023-05-05T19:21:47.247Z,100286.70
2023-05-05T19:24:15.378Z,100287.56
2023-05-05T19:26:46.399Z,100283.85
2023-05-05T19:29:17.708Z,100284.85
2023-05-05T19:31:45.732Z,100281.45
2023-05-05T19:34:13.841Z,100281.39
2023-05-05T19:36:41.956Z,100283.10
2023-05-05T19:39:09.851Z,100281.69
2023-05-05T19:41:40.161Z,100281.23
2023-05-05T19:44:08.185Z,100280.60
2023-05-05T19:46:36.262Z,100278.36
2023-05-05T19:49:04.172Z,100279.56
2023-05-05T19:51:32.136Z,100281.00
2023-05-05T19:54:00.218Z,100279.33
2023-05-05T19:56:30.220Z,100277.04
2023-05-05T19:59:02.508Z,100276.27
2023-05-05T20:01:30.675Z,100276.77
2023-05-05T20:03:58.688Z,100278.48
2023-05-05T20:06:27.113Z,100276.92
2023-05-05T20:08:55.558Z,100278.95
2023-05-05T20:11:25.006Z,100275.56
2023-05-05T20:13:56.870Z,100276.94
2023-05-05T20:16:24.898Z,100278.16
2023-05-05T20:18:55.214Z,100278.34
2023-05-05T20:21:23.151Z,100274.67
2023-05-05T20:23:51.180Z,100274.24
2023-05-05T20:26:19.332Z,100274.31
2023-05-05T20:28:47.352Z,100276.13
2023-05-05T20:31:15.462Z,100274.68
2023-05-05T20:33:43.401Z,100275.13
2023-05-05T20:36:11.757Z,100274.49
2023-05-05T20:38:43.619Z,100274.55
2023-05-05T20:41:11.708Z,100273.98
2023-05-05T20:43:40.256Z,100274.05
2023-05-05T20:46:13.104Z,100271.09
2023-05-05T20:48:43.085Z,100269.30
2023-05-05T20:51:11.677Z,100269.69
2023-05-05T20:53:40.007Z,100268.86
2023-05-05T20:56:10.365Z,100271.30
2023-05-05T20:58:38.555Z,100265.63
2023-05-05T21:01:06.709Z,100261.05
2023-05-05T21:03:36.322Z,100263.34
2023-05-05T21:06:04.602Z,100259.24
2023-05-05T21:08:37.430Z,100262.48
2023-05-05T21:11:10.659Z,100263.64
2023-05-05T21:13:39.082Z,100265.69
2023-05-05T21:16:07.606Z,100266.15
2023-05-05T21:18:36.094Z,100267.02
2023-05-05T21:21:04.602Z,100269.80
2023-05-05T21:23:35.228Z,100267.81
2023-05-05T21:26:03.852Z,100267.41
2023-05-05T21:28:32.491Z,100267.48
2023-05-05T21:31:20.575Z,100268.98
2023-05-05T21:33:49.730Z,100268.19
2023-05-05T21:36:19.233Z,100270.23
2023-05-05T21:38:47.505Z,100269.56
2023-05-05T21:41:16.897Z,100266.52
2023-05-05T21:43:49.554Z,100265.88
2023-05-05T21:46:18.254Z,100268.34
2023-05-05T21:48:47.404Z,100268.88
2023-05-05T21:51:23.067Z,100268.21
2023-05-05T21:53:51.469Z,100266.83
2023-05-05T21:56:19.617Z,100266.48
2023-05-05T21:58:47.690Z,100270.61
2023-05-05T22:01:16.084Z,100271.88
2023-05-05T22:03:44.539Z,100270.90
2023-05-05T22:06:20.501Z,100274.14
2023-05-05T22:08:53.157Z,100272.70
2023-05-05T22:11:29.101Z,100271.42
2023-05-05T22:13:57.249Z,100272.05
2023-05-05T22:16:27.780Z,100266.41
2023-05-05T22:18:58.457Z,100264.73
2023-05-05T22:21:27.608Z,100265.27
2023-05-05T22:23:55.727Z,100264.45
2023-05-05T22:26:23.978Z,100262.30
2023-05-05T22:28:52.032Z,100262.37
2023-05-05T22:31:23.016Z,100258.08
2023-05-05T22:33:51.417Z,100254.57
2023-05-05T22:36:21.820Z,100251.55
2023-05-05T22:38:54.426Z,100251.14
2023-05-05T22:41:23.938Z,100247.55
2023-05-05T22:43:51.962Z,100245.48
2023-05-05T22:46:20.343Z,100246.81
2023-05-05T22:48:49.176Z,100246.63
2023-05-05T22:51:19.025Z,100239.14
2023-05-05T22:53:47.169Z,100236.83
2023-05-05T22:56:15.641Z,100236.02
2023-05-05T22:58:47.032Z,100235.36
2023-05-05T23:01:18.338Z,100235.66
2023-05-05T23:03:51.783Z,100233.10
2023-05-05T23:06:21.987Z,100235.36
2023-05-05T23:08:50.161Z,100232.38
2023-05-05T23:11:20.592Z,100232.27
2023-05-05T23:13:51.092Z,100231.86
2023-05-05T23:16:20.196Z,100226.98
2023-05-05T23:18:50.957Z,100227.29
2023-05-05T23:21:19.356Z,100223.27
2023-05-05T23:23:56.267Z,100220.86
2023-05-05T23:26:24.455Z,100215.29
2023-05-05T23:28:52.716Z,100215.12
2023-05-05T23:31:21.005Z,100212.55
2023-05-05T23:33:52.453Z,100208.80
2023-05-05T23:36:27.651Z,100208.77
2023-05-05T23:38:57.810Z,100207.95
2023-05-05T23:41:26.021Z,100206.03
2023-05-05T23:43:54.179Z,100205.87
2023-05-05T23:46:24.140Z,100207.92
2023-05-05T23:48:58.255Z,100209.48
2023-05-05T23:51:28.840Z,100210.98
2023-05-05T23:53:59.706Z,100211.14
2023-05-05T23:56:28.146Z,100207.96
2023-05-05T23:58:57.989Z,100206.79
